Main page
METAR-TAF:

METAR-TAF

Airports :

Kristianstad Airport

Kristianstad, Sweden

latitude: 55-55N, longitude: 014-05E, elevation: 23 m

Current weather observation

The report was made 18 minutes ago, at 17:50 UTC
Wind 7 kt from the South/Southwest
Temperature 20°C
Humidity 60%
Pressure 1012 hPa
Visibility 10 km or more

METAR: ESMK 141750Z AUTO 21007KT 9999 NCD 20/12 Q1012

Time: 20:08 (18:08 UTC)


TAF: missing

Weather observations and forecasts of more than 4000 airports (METAR and TAF reports).

The available stations are represented by yellow and red dots on the map.

Hover mouse over dot to see the name of the station.

Then click to see weather observations and forecasts.

To change the map : click on the green buttons with a black cross to zoom in, on the green button with a dash to zoom out, or on the green arrows for adjacent maps.


METAR-TAF: